Time;durP1;ratioP1;P1;durP2;ratioP2;P2;SDS_P1;SDS_P2;PMS_P1;PMS_P2;Temp;Humidity;BMP_temperature;BMP_pressure;BME280_temperature;BME280_humidity;BME280_pressure;Samples;Min_cycle;Max_cycle;Signal;HPM_P1;HPM_P2
2022/11/15 00:01:18;;;;;;;15.90;12.40;;;10.70;99.90;;;;;;6280845;22;20587;-83
2022/11/15 00:03:44;;;;;;;15.07;12.20;;;10.70;99.90;;;;;;6254323;22;20263;-83
2022/11/15 00:06:10;;;;;;;16.37;12.20;;;10.70;99.90;;;;;;6282264;22;20375;-83
2022/11/15 00:08:35;;;;;;;18.77;13.60;;;10.70;99.90;;;;;;6280898;22;20420;-84
2022/11/15 00:11:02;;;;;;;16.33;13.13;;;10.80;99.90;;;;;;6282941;22;20186;-84
2022/11/15 00:13:29;;;;;;;23.90;14.53;;;10.80;99.90;;;;;;6283877;22;20174;-84
2022/11/15 00:15:58;;;;;;;15.33;12.10;;;10.80;99.90;;;;;;6281379;22;20711;-85
2022/11/15 00:18:23;;;;;;;16.10;12.97;;;10.80;99.90;;;;;;6280942;22;20412;-83
2022/11/15 00:20:49;;;;;;;15.70;12.50;;;10.80;99.90;;;;;;6282584;22;20512;-84
2022/11/15 00:23:14;;;;;;;17.40;12.40;;;10.90;99.90;;;;;;6280076;22;20550;-83
2022/11/15 00:25:40;;;;;;;18.13;13.17;;;10.90;99.90;;;;;;6280055;22;20492;-84
2022/11/15 00:28:05;;;;;;;14.50;12.00;;;10.90;99.90;;;;;;6252884;22;20156;-85
2022/11/15 00:30:31;;;;;;;23.20;13.60;;;10.90;99.90;;;;;;6280718;22;20629;-85
2022/11/15 00:33:00;;;;;;;15.23;12.13;;;11.00;99.90;;;;;;6280743;22;20665;-84
2022/11/15 00:35:26;;;;;;;18.27;13.00;;;11.00;99.90;;;;;;6282306;22;20180;-84
2022/11/15 00:37:52;;;;;;;15.57;12.40;;;11.00;99.90;;;;;;6281310;22;20379;-83
2022/11/15 00:40:18;;;;;;;22.50;14.00;;;11.00;99.90;;;;;;6282035;22;20971;-83
2022/11/15 00:42:43;;;;;;;17.27;13.37;;;11.00;99.90;;;;;;6253058;22;20749;-84
2022/11/15 00:45:09;;;;;;;21.37;12.33;;;11.00;99.90;;;;;;6254976;22;20267;-84
2022/11/15 00:47:35;;;;;;;15.87;12.10;;;11.00;99.90;;;;;;6280810;22;20153;-83
2022/11/15 00:50:01;;;;;;;14.43;11.90;;;11.00;99.90;;;;;;6280180;22;20923;-83
2022/11/15 00:52:26;;;;;;;16.70;12.30;;;11.00;99.90;;;;;;6280010;22;20160;-84
2022/11/15 00:54:52;;;;;;;18.10;13.03;;;11.00;99.90;;;;;;6282170;22;20181;-83
2022/11/15 00:57:17;;;;;;;25.13;12.33;;;11.00;1.00;;;;;;6282151;22;20167;-83
2022/11/15 00:59:43;;;;;;;14.30;11.57;;;11.10;1.00;;;;;;6279989;22;20148;-84
2022/11/15 01:02:08;;;;;;;18.63;12.50;;;11.10;1.00;;;;;;6280378;22;20175;-84
2022/11/15 01:04:34;;;;;;;14.37;11.93;;;11.10;1.00;;;;;;6280174;22;20499;-84
2022/11/15 01:06:59;;;;;;;17.20;11.00;;;11.10;1.00;;;;;;6281700;22;20158;-84
2022/11/15 01:09:25;;;;;;;16.47;12.90;;;11.20;1.00;;;;;;6281219;22;20168;-84
2022/11/15 01:11:50;;;;;;;14.67;12.43;;;11.20;1.00;;;;;;6282162;22;20497;-82
2022/11/15 01:14:16;;;;;;;14.37;11.27;;;11.20;1.00;;;;;;6284084;22;20626;-83
2022/11/15 01:16:41;;;;;;;15.40;11.77;;;11.20;1.00;;;;;;6284019;22;20153;-83
2022/11/15 01:19:07;;;;;;;17.73;12.53;;;11.20;1.00;;;;;;6276098;22;20144;-83
2022/11/15 01:21:32;;;;;;;17.20;11.87;;;11.30;1.00;;;;;;6247187;22;20239;-80
2022/11/15 01:23:58;;;;;;;18.50;11.90;;;11.30;1.00;;;;;;6246335;22;20499;-82
2022/11/15 01:26:24;;;;;;;16.23;11.53;;;11.30;1.00;;;;;;6247958;22;20187;-83
2022/11/15 01:28:50;;;;;;;17.40;12.53;;;11.30;1.00;;;;;;6247064;22;20233;-82
2022/11/15 01:31:19;;;;;;;16.17;11.63;;;11.30;1.00;;;;;;6275337;22;20477;-83
2022/11/15 01:33:47;;;;;;;14.50;10.53;;;11.30;1.00;;;;;;6243295;23;20451;-84
2022/11/15 01:36:15;;;;;;;14.20;11.40;;;11.40;1.00;;;;;;6244011;23;20372;-82
2022/11/15 01:38:41;;;;;;;16.20;12.43;;;11.40;1.00;;;;;;6216944;23;20722;-82
2022/11/15 01:41:12;;;;;;;16.30;12.07;;;11.40;1.00;;;;;;6244467;23;20367;-84
2022/11/15 01:43:39;;;;;;;18.10;12.63;;;11.50;1.00;;;;;;6245882;23;20141;-82
2022/11/15 01:46:33;;;;;;;12.53;11.10;;;11.50;1.00;;;;;;6244696;23;20713;-84
2022/11/15 01:49:04;;;;;;;13.57;11.33;;;11.50;1.00;;;;;;6249254;23;20823;-84
2022/11/15 01:51:32;;;;;;;15.00;10.50;;;11.50;1.00;;;;;;6248304;23;20364;-84
2022/11/15 01:54:06;;;;;;;18.00;10.63;;;11.40;1.00;;;;;;6251789;23;20392;-83
2022/11/15 01:56:45;;;;;;;12.83;10.30;;;11.40;1.00;;;;;;6220563;23;20939;-83
2022/11/15 01:59:11;;;;;;;16.10;11.07;;;11.30;1.00;;;;;;6246862;23;20447;-83
2022/11/15 02:01:37;;;;;;;20.10;12.67;;;11.30;1.00;;;;;;6246189;23;20376;-82
2022/11/15 02:04:25;;;;;;;18.90;14.00;;;11.30;1.00;;;;;;6247263;23;20479;-83
2022/11/15 02:06:51;;;;;;;17.27;11.07;;;11.20;1.00;;;;;;6246452;23;20822;-83
2022/11/15 02:09:17;;;;;;;13.90;10.87;;;11.20;1.00;;;;;;6246562;23;20423;-84
2022/11/15 02:11:45;;;;;;;13.87;10.50;;;11.20;1.00;;;;;;6248404;23;20591;-84
2022/11/15 02:14:14;;;;;;;16.73;10.30;;;11.20;1.00;;;;;;6222007;23;20399;-84
2022/11/15 02:17:02;;;;;;;13.10;9.83;;;11.20;1.00;;;;;;6251072;23;20431;-84
2022/11/15 02:20:06;;;;;;;11.03;9.00;;;11.30;1.00;;;;;;6250178;23;20384;-83
2022/11/15 02:22:51;;;;;;;13.07;9.20;;;11.30;1.00;;;;;;6098402;23;20423;-84
2022/11/15 02:25:25;;;;;;;13.00;8.97;;;11.30;1.00;;;;;;6074222;23;20539;-84
2022/11/15 02:28:30;;;;;;;10.10;8.23;;;11.40;1.00;;;;;;6195263;23;20470;-84
2022/11/15 02:31:17;;;;;;;9.57;8.47;;;11.40;1.00;;;;;;6250397;23;20434;-84
2022/11/15 02:33:51;;;;;;;12.77;10.03;;;11.40;1.00;;;;;;6249675;23;20396;-83
2022/11/15 02:36:39;;;;;;;12.03;8.80;;;11.50;1.00;;;;;;6223736;23;20721;-84
2022/11/15 02:39:34;;;;;;;10.43;8.23;;;11.50;1.00;;;;;;6250561;23;20391;-84
2022/11/15 02:43:56;;;;;;;10.73;8.43;;;11.50;1.00;;;;;;6222343;23;20390;-84
2022/11/15 02:44:59;;;;;;;9.47;7.90;;;11.60;1.00;;;;;;6250411;23;20967;-84
2022/11/15 02:47:29;;;;;;;9.83;7.40;;;11.60;1.00;;;;;;6223851;23;20882;-83
2022/11/15 02:50:00;;;;;;;10.30;8.17;;;11.60;1.00;;;;;;6225480;23;20438;-84
2022/11/15 02:52:26;;;;;;;13.20;8.27;;;11.60;1.00;;;;;;6253906;23;20357;-83
2022/11/15 02:54:55;;;;;;;11.57;8.07;;;11.70;1.00;;;;;;6253145;23;20730;-84
2022/11/15 02:57:25;;;;;;;13.80;8.60;;;11.70;1.00;;;;;;6250903;23;20432;-83
2022/11/15 03:00:10;;;;;;;10.07;7.90;;;11.70;1.00;;;;;;6252092;23;20414;-85
2022/11/15 03:03:16;;;;;;;11.43;8.50;;;11.70;1.00;;;;;;6251849;23;20459;-84
2022/11/15 03:05:51;;;;;;;12.10;8.50;;;11.70;1.00;;;;;;6252145;23;20757;-83
2022/11/15 03:08:25;;;;;;;13.93;8.80;;;11.80;1.00;;;;;;6251405;23;20375;-85
2022/11/15 03:11:08;;;;;;;12.23;8.50;;;11.80;1.00;;;;;;6252162;23;20415;-84
2022/11/15 03:13:47;;;;;;;11.60;7.73;;;11.80;1.00;;;;;;6250069;23;20356;-83
2022/11/15 03:16:36;;;;;;;13.97;8.60;;;11.80;1.00;;;;;;6252958;23;20356;-84
2022/11/15 03:19:18;;;;;;;9.70;8.00;;;11.80;1.00;;;;;;6254187;23;20403;-84
2022/11/15 03:21:46;;;;;;;10.93;7.83;;;11.90;1.00;;;;;;6253208;23;20447;-84
2022/11/15 03:24:14;;;;;;;14.30;8.20;;;11.90;1.00;;;;;;6252228;23;20773;-83
2022/11/15 03:26:43;;;;;;;12.70;9.47;;;11.90;1.00;;;;;;6251245;23;20422;-84
2022/11/15 03:29:17;;;;;;;9.50;7.40;;;12.00;1.00;;;;;;6251099;23;20419;-83
2022/11/15 03:31:48;;;;;;;12.13;8.97;;;12.00;1.00;;;;;;6249415;23;20399;-84
2022/11/15 03:34:34;;;;;;;10.37;8.50;;;12.00;1.00;;;;;;6251958;23;20388;-83
2022/11/15 03:37:00;;;;;;;11.90;8.37;;;12.10;1.00;;;;;;6250373;23;21020;-85
2022/11/15 03:39:27;;;;;;;12.13;8.97;;;12.10;1.00;;;;;;6251942;23;20380;-83
2022/11/15 03:42:20;;;;;;;12.60;7.90;;;12.10;1.00;;;;;;6250563;23;20156;-82
2022/11/15 03:44:58;;;;;;;13.17;9.63;;;12.10;1.00;;;;;;6250762;23;20426;-83
2022/11/15 03:47:30;;;;;;;16.13;7.90;;;12.10;1.00;;;;;;6250288;23;20411;-81
2022/11/15 03:50:00;;;;;;;9.40;7.97;;;12.10;1.00;;;;;;6250555;23;20407;-84
2022/11/15 03:52:30;;;;;;;12.37;8.80;;;12.10;1.00;;;;;;6251370;23;20372;-84
2022/11/15 03:54:56;;;;;;;13.60;8.50;;;12.20;1.00;;;;;;6249738;23;20908;-84
2022/11/15 03:57:22;;;;;;;8.80;7.90;;;12.20;1.00;;;;;;6252051;23;20873;-83
2022/11/15 03:59:48;;;;;;;9.13;8.17;;;12.20;1.00;;;;;;6248775;23;20398;-84
2022/11/15 04:02:13;;;;;;;12.07;7.50;;;12.20;1.00;;;;;;6250648;23;20607;-81
2022/11/15 04:04:39;;;;;;;9.83;7.30;;;12.20;1.00;;;;;;6249835;23;20180;-84
2022/11/15 04:07:05;;;;;;;9.00;7.80;;;12.20;1.00;;;;;;6250060;23;20153;-84
2022/11/15 04:09:30;;;;;;;9.90;7.43;;;12.20;1.00;;;;;;6251081;23;20511;-83
2022/11/15 04:11:56;;;;;;;8.53;7.53;;;12.20;1.00;;;;;;6250420;23;20538;-85
2022/11/15 04:14:21;;;;;;;8.67;7.30;;;12.20;1.00;;;;;;6250403;23;20177;-83
2022/11/15 04:16:47;;;;;;;10.40;7.20;;;12.30;1.00;;;;;;6252177;23;20167;-83
2022/11/15 04:24:41;;;;;;;9.60;6.70;;;12.30;1.00;;;;;;6250515;23;20398;-83
2022/11/15 04:27:06;;;;;;;11.80;7.40;;;12.20;1.00;;;;;;6248428;23;20412;-84
2022/11/15 04:29:34;;;;;;;8.53;6.47;;;12.20;1.00;;;;;;6251675;23;20183;-84
2022/11/15 04:32:05;;;;;;;8.07;6.70;;;12.20;1.00;;;;;;6223984;23;20164;-83
2022/11/15 04:34:31;;;;;;;8.97;6.03;;;12.20;1.00;;;;;;6252422;23;20388;-83
2022/11/15 04:37:12;;;;;;;7.50;6.70;;;12.20;1.00;;;;;;6223107;23;20888;-83
2022/11/15 04:39:39;;;;;;;9.33;8.33;;;12.20;1.00;;;;;;6251358;23;20388;-84
2022/11/15 04:42:05;;;;;;;10.50;8.83;;;12.20;1.00;;;;;;6249869;23;20867;-83
2022/11/15 04:44:30;;;;;;;14.30;10.00;;;12.20;1.00;;;;;;6251452;23;20433;-82
2022/11/15 04:46:56;;;;;;;12.37;8.50;;;12.20;1.00;;;;;;6224891;23;20157;-84
2022/11/15 04:49:21;;;;;;;8.30;6.80;;;12.20;1.00;;;;;;6226059;23;20192;-83
2022/11/15 04:51:47;;;;;;;9.43;6.70;;;12.30;1.00;;;;;;6253357;23;20180;-83
2022/11/15 04:54:12;;;;;;;8.03;6.40;;;12.20;1.00;;;;;;6250913;23;20169;-83
2022/11/15 04:56:38;;;;;;;6.70;5.97;;;12.30;1.00;;;;;;6249141;23;20175;-84
2022/11/15 04:59:03;;;;;;;9.43;5.97;;;12.30;1.00;;;;;;6249071;23;20149;-83
2022/11/15 05:01:29;;;;;;;10.30;6.17;;;12.30;1.00;;;;;;6223988;23;20168;-83
2022/11/15 05:06:39;;;;;;;10.03;6.40;;;12.30;1.00;;;;;;6251346;23;20162;-83
2022/11/15 05:09:04;;;;;;;7.43;6.03;;;12.30;1.00;;;;;;6250077;23;20411;-84
2022/11/15 05:11:30;;;;;;;6.00;4.90;;;12.30;1.00;;;;;;6247749;23;20164;-84
2022/11/15 05:13:56;;;;;;;8.30;6.20;;;12.30;1.00;;;;;;6223508;23;20200;-83
2022/11/15 05:16:21;;;;;;;10.50;7.00;;;12.30;1.00;;;;;;6250056;23;20372;-84
2022/11/15 05:18:51;;;;;;;6.90;5.93;;;12.30;1.00;;;;;;6249971;23;20168;-83
2022/11/15 05:21:16;;;;;;;8.83;6.77;;;12.30;1.00;;;;;;6224882;23;20164;-84
2022/11/15 05:23:42;;;;;;;10.57;7.00;;;12.30;1.00;;;;;;6248116;23;20380;-84
2022/11/15 05:26:08;;;;;;;7.83;6.60;;;12.30;1.00;;;;;;6249348;23;20244;-83
2022/11/15 05:28:34;;;;;;;8.67;7.27;;;12.30;1.00;;;;;;6249353;23;20153;-83
2022/11/15 05:31:01;;;;;;;8.80;6.13;;;12.30;1.00;;;;;;6251116;23;20805;-84
2022/11/15 05:33:27;;;;;;;7.60;6.00;;;12.30;1.00;;;;;;6249509;23;20161;-84
2022/11/15 05:36:01;;;;;;;5.30;4.80;;;12.30;1.00;;;;;;6249352;23;21255;-84
2022/11/15 05:38:26;;;;;;;7.17;5.43;;;12.30;1.00;;;;;;6224532;23;20172;-84
2022/11/15 05:40:52;;;;;;;6.27;5.50;;;12.20;1.00;;;;;;6250188;23;20372;-83
2022/11/15 05:43:17;;;;;;;6.90;4.93;;;12.20;1.00;;;;;;6250236;23;20153;-82
2022/11/15 05:45:43;;;;;;;6.53;5.50;;;12.20;1.00;;;;;;6249386;23;20169;-84
2022/11/15 05:48:09;;;;;;;7.03;5.50;;;12.20;1.00;;;;;;6249432;23;20160;-84
2022/11/15 05:50:37;;;;;;;9.10;5.93;;;12.20;1.00;;;;;;6249188;23;20199;-84
2022/11/15 05:53:03;;;;;;;8.43;5.30;;;12.20;1.00;;;;;;6249015;23;21019;-84
2022/11/15 05:55:28;;;;;;;6.40;5.00;;;12.20;1.00;;;;;;6248199;23;20395;-84
2022/11/15 05:57:54;;;;;;;6.90;5.57;;;12.20;1.00;;;;;;6223255;23;20153;-82
2022/11/15 06:00:20;;;;;;;5.47;4.97;;;12.20;1.00;;;;;;6251459;23;20156;-83
2022/11/15 06:02:45;;;;;;;7.00;4.70;;;12.20;1.00;;;;;;6250315;23;20380;-84
2022/11/15 06:05:11;;;;;;;4.50;4.10;;;12.20;1.00;;;;;;6249305;23;20180;-83
2022/11/15 06:07:36;;;;;;;4.17;3.77;;;12.20;1.00;;;;;;6255094;23;20160;-84
2022/11/15 06:10:02;;;;;;;4.40;3.53;;;12.20;1.00;;;;;;6258008;23;20184;-82
2022/11/15 06:12:27;;;;;;;3.93;3.37;;;12.30;1.00;;;;;;6254951;23;20161;-83
2022/11/15 06:14:53;;;;;;;5.10;4.23;;;12.30;1.00;;;;;;6258536;23;20695;-83
2022/11/15 06:17:18;;;;;;;4.10;3.30;;;12.40;1.00;;;;;;6258869;23;20176;-83
2022/11/15 06:19:44;;;;;;;4.20;2.90;;;12.40;1.00;;;;;;6259515;23;20164;-84
2022/11/15 06:22:09;;;;;;;4.10;2.13;;;12.40;1.00;;;;;;6258070;23;20161;-81
2022/11/15 06:24:35;;;;;;;2.33;2.10;;;12.50;1.00;;;;;;6262541;23;20224;-83
2022/11/15 06:27:00;;;;;;;3.07;2.50;;;12.50;1.00;;;;;;6265002;23;20145;-83
2022/11/15 06:29:26;;;;;;;2.60;2.10;;;12.50;1.00;;;;;;6262476;23;20183;-83
2022/11/15 06:31:52;;;;;;;3.03;1.90;;;12.60;99.90;;;;;;6257080;23;20172;-82
2022/11/15 06:34:18;;;;;;;2.47;1.80;;;12.60;99.90;;;;;;6258406;23;20172;-83
2022/11/15 06:36:43;;;;;;;4.30;1.90;;;12.60;99.90;;;;;;6259298;23;20387;-83
2022/11/15 06:39:09;;;;;;;1.67;1.50;;;12.60;99.90;;;;;;6258070;23;20180;-83
2022/11/15 06:41:35;;;;;;;3.20;1.40;;;12.60;99.90;;;;;;6258393;23;20466;-83
2022/11/15 06:44:02;;;;;;;3.50;1.50;;;12.60;99.90;;;;;;6257869;23;20179;-83
2022/11/15 06:46:27;;;;;;;1.87;1.37;;;12.60;99.90;;;;;;6256096;23;20372;-83
2022/11/15 06:48:53;;;;;;;2.57;1.50;;;12.60;99.90;;;;;;6229963;23;20380;-83
2022/11/15 06:51:19;;;;;;;1.83;1.40;;;12.50;99.90;;;;;;6254861;23;20146;-84
2022/11/15 06:53:44;;;;;;;1.90;1.50;;;12.50;99.90;;;;;;6255399;23;20497;-83
2022/11/15 06:56:10;;;;;;;1.63;1.30;;;12.40;1.00;;;;;;6254282;23;20157;-83
2022/11/15 06:58:36;;;;;;;2.13;1.10;;;12.30;1.00;;;;;;6254646;23;20160;-82
2022/11/15 07:01:07;;;;;;;1.43;0.97;;;12.30;1.00;;;;;;6254938;23;20184;-83
2022/11/15 07:03:38;;;;;;;1.67;1.20;;;12.30;1.00;;;;;;6254450;23;20718;-82
2022/11/15 07:06:04;;;;;;;2.13;1.43;;;12.20;1.00;;;;;;6256477;23;20443;-83
2022/11/15 07:08:29;;;;;;;1.47;1.00;;;12.20;1.00;;;;;;6253620;23;20376;-83
2022/11/15 07:10:59;;;;;;;2.57;1.20;;;12.20;1.00;;;;;;6255757;23;20940;-84
2022/11/15 07:13:26;;;;;;;3.40;1.50;;;12.20;1.00;;;;;;6253039;23;20156;-84
2022/11/15 07:15:52;;;;;;;2.90;1.40;;;12.20;1.00;;;;;;6253575;23;20406;-84
2022/11/15 07:18:17;;;;;;;1.40;0.97;;;12.20;1.00;;;;;;6254981;23;20395;-84
2022/11/15 07:20:43;;;;;;;2.70;1.17;;;12.30;1.00;;;;;;6252598;23;20184;-84
2022/11/15 07:23:08;;;;;;;3.20;1.30;;;12.30;1.00;;;;;;6253745;23;20164;-84
2022/11/15 07:25:34;;;;;;;2.23;0.97;;;12.30;1.00;;;;;;6256719;23;20176;-84
2022/11/15 07:28:00;;;;;;;1.77;1.27;;;12.40;1.00;;;;;;6254972;23;20157;-84
2022/11/15 07:30:27;;;;;;;1.57;1.30;;;12.30;1.00;;;;;;6256663;23;20184;-83
2022/11/15 07:32:57;;;;;;;2.50;1.43;;;12.40;1.00;;;;;;6253164;23;20375;-85
2022/11/15 07:35:24;;;;;;;1.80;1.50;;;12.40;1.00;;;;;;6256291;23;20387;-85
2022/11/15 07:37:57;;;;;;;1.50;1.40;;;12.40;1.00;;;;;;6253590;23;20408;-85
2022/11/15 07:40:24;;;;;;;2.37;1.50;;;12.50;1.00;;;;;;6229074;23;20447;-84
2022/11/15 07:42:52;;;;;;;3.27;1.53;;;12.50;1.00;;;;;;6255860;23;20525;-85
2022/11/15 07:45:19;;;;;;;4.70;1.20;;;12.50;1.00;;;;;;6253539;23;20402;-84
2022/11/15 07:47:51;;;;;;;3.70;2.17;;;12.50;1.00;;;;;;6255015;23;20384;-85
2022/11/15 07:50:17;;;;;;;1.90;1.23;;;12.50;1.00;;;;;;6228071;23;20427;-85
2022/11/15 07:52:43;;;;;;;3.13;2.40;;;12.60;1.00;;;;;;6253558;23;20376;-85
2022/11/15 07:55:09;;;;;;;4.40;1.90;;;12.60;99.90;;;;;;6253336;23;20483;-84
2022/11/15 07:57:35;;;;;;;3.40;2.10;;;12.80;99.90;;;;;;6251895;23;20416;-84
2022/11/15 08:00:00;;;;;;;2.20;2.00;;;12.90;99.90;;;;;;6255392;23;20162;-84
2022/11/15 08:02:26;;;;;;;1.87;1.67;;;13.10;99.90;;;;;;6252510;23;20387;-84
2022/11/15 08:04:52;;;;;;;1.97;1.80;;;13.30;99.90;;;;;;6253196;23;20388;-83
2022/11/15 08:07:17;;;;;;;3.40;1.40;;;13.50;99.90;;;;;;6250719;23;20166;-84
2022/11/15 08:09:43;;;;;;;2.13;1.33;;;13.80;99.90;;;;;;6255216;23;20179;-84
2022/11/15 08:12:08;;;;;;;1.40;1.20;;;14.20;1.00;;;;;;6255923;23;20213;-84
2022/11/15 08:14:35;;;;;;;2.17;1.20;;;14.50;1.00;;;;;;6255308;23;20231;-84
2022/11/15 08:17:00;;;;;;;1.87;1.00;;;14.80;99.90;;;;;;6226615;23;20237;-84
2022/11/15 08:19:26;;;;;;;4.53;1.20;;;14.90;1.00;;;;;;6254067;23;20891;-84
2022/11/15 08:21:51;;;;;;;2.53;1.50;;;15.00;1.00;;;;;;6253997;23;20202;-84
2022/11/15 08:24:17;;;;;;;2.33;1.30;;;14.90;99.90;;;;;;6251492;23;20198;-84
2022/11/15 08:26:42;;;;;;;2.20;1.50;;;14.80;99.90;;;;;;6257406;23;20176;-84
2022/11/15 08:29:08;;;;;;;2.80;1.30;;;14.80;1.00;;;;;;6259704;23;20216;-85
2022/11/15 08:31:36;;;;;;;2.20;1.03;;;14.90;1.00;;;;;;6257105;23;20478;-83
2022/11/15 08:34:02;;;;;;;1.47;0.90;;;15.20;99.90;;;;;;6220326;23;20200;-85
2022/11/15 08:36:28;;;;;;;1.60;1.13;;;16.10;1.00;;;;;;6247386;23;20404;-84
2022/11/15 08:38:53;;;;;;;2.37;1.20;;;16.80;99.90;;;;;;6249639;23;20412;-84
2022/11/15 08:41:29;;;;;;;2.47;1.00;;;17.40;99.90;;;;;;6250354;23;20163;-84
2022/11/15 08:43:55;;;;;;;1.40;1.00;;;18.30;1.00;;;;;;6247959;23;20269;-85
2022/11/15 08:46:20;;;;;;;1.23;0.90;;;19.30;99.90;;;;;;6240387;23;20390;-85
2022/11/15 08:48:46;;;;;;;2.20;0.80;;;20.10;1.00;;;;;;6246418;23;20163;-84
2022/11/15 08:51:11;;;;;;;1.53;1.00;;;21.00;1.00;;;;;;6245444;23;20177;-85
2022/11/15 08:53:37;;;;;;;2.43;1.07;;;21.70;99.90;;;;;;6247188;23;20157;-84
2022/11/15 08:56:06;;;;;;;2.17;1.30;;;22.40;99.90;;;;;;6247000;23;20150;-84
2022/11/15 08:58:32;;;;;;;4.20;1.30;;;22.80;99.90;;;;;;6243965;23;20166;-84
2022/11/15 09:00:57;;;;;;;2.50;1.33;;;23.30;99.90;;;;;;6246246;23;20720;-84
2022/11/15 09:03:23;;;;;;;2.50;1.27;;;23.70;99.90;;;;;;6241525;23;20231;-85
2022/11/15 09:05:48;;;;;;;4.00;1.60;;;23.80;99.90;;;;;;6244811;23;20223;-84
2022/11/15 09:08:14;;;;;;;3.40;1.00;;;24.00;99.90;;;;;;6244501;23;20188;-85
2022/11/15 09:10:39;;;;;;;2.73;0.93;;;24.30;99.90;;;;;;6243396;23;20187;-84
2022/11/15 09:13:05;;;;;;;3.70;1.30;;;24.20;99.90;;;;;;6246949;23;20155;-84
2022/11/15 09:15:30;;;;;;;2.60;0.93;;;24.20;99.90;;;;;;6248106;23;20223;-85
2022/11/15 09:17:59;;;;;;;3.73;1.20;;;23.80;99.90;;;;;;6245251;23;20176;-85
2022/11/15 09:20:25;;;;;;;3.60;1.10;;;23.20;99.90;;;;;;6240799;23;20233;-84
2022/11/15 09:22:50;;;;;;;4.00;1.20;;;22.70;99.90;;;;;;6245489;23;20396;-84
2022/11/15 09:25:16;;;;;;;2.43;1.30;;;22.10;99.90;;;;;;6222304;23;20180;-83
2022/11/15 09:27:41;;;;;;;2.63;1.20;;;21.60;99.90;;;;;;6243266;23;20633;-84
2022/11/15 09:30:07;;;;;;;1.90;1.20;;;21.20;99.90;;;;;;6244112;23;20663;-84
2022/11/15 09:32:33;;;;;;;3.17;1.90;;;20.90;99.90;;;;;;6244386;23;20252;-84
2022/11/15 09:34:58;;;;;;;2.30;1.47;;;20.60;99.90;;;;;;6220683;23;20407;-84
2022/11/15 09:37:24;;;;;;;4.33;1.60;;;20.50;99.90;;;;;;6245995;23;20620;-85
2022/11/15 09:39:50;;;;;;;10.13;1.40;;;20.30;99.90;;;;;;6247954;23;20164;-84
2022/11/15 09:42:46;;;;;;;1.80;1.00;;;20.20;99.90;;;;;;6221439;23;20167;-83
2022/11/15 09:45:30;;;;;;;2.90;1.30;;;20.00;99.90;;;;;;6248734;23;20475;-83
2022/11/15 09:48:17;;;;;;;3.13;1.40;;;19.80;99.90;;;;;;6250308;23;20360;-84
2022/11/15 09:50:47;;;;;;;2.73;1.10;;;19.60;99.90;;;;;;6248466;23;20518;-83
2022/11/15 09:53:44;;;;;;;4.20;1.43;;;19.50;99.90;;;;;;6248120;23;20379;-83
2022/11/15 09:56:31;;;;;;;2.40;1.70;;;19.40;99.90;;;;;;6216961;23;20383;-83
2022/11/15 09:59:25;;;;;;;3.37;2.43;;;19.10;99.90;;;;;;6250093;23;20385;-84
2022/11/15 10:02:18;;;;;;;5.53;2.53;;;18.90;99.90;;;;;;6247092;23;20379;-84
2022/11/15 10:04:43;;;;;;;1.73;1.40;;;18.70;99.90;;;;;;6251286;23;20400;-84
2022/11/15 10:07:20;;;;;;;2.57;1.40;;;18.40;99.90;;;;;;6247687;23;20713;-84
2022/11/15 10:10:03;;;;;;;3.00;1.90;;;18.10;99.90;;;;;;6220984;23;20214;-84
2022/11/15 10:12:29;;;;;;;2.73;1.63;;;18.00;99.90;;;;;;6249541;23;20366;-83
2022/11/15 10:15:04;;;;;;;3.70;1.50;;;17.90;99.90;;;;;;6248769;23;20422;-83
2022/11/15 10:17:41;;;;;;;5.03;1.60;;;17.90;99.90;;;;;;6248149;23;20421;-84
2022/11/15 10:20:12;;;;;;;4.10;1.53;;;17.90;99.90;;;;;;6242418;23;20367;-84
2022/11/15 10:22:47;;;;;;;3.63;1.33;;;17.90;99.90;;;;;;6246651;23;20364;-83
2022/11/15 10:25:22;;;;;;;3.40;1.27;;;17.90;99.90;;;;;;6246104;23;20489;-82
2022/11/15 10:28:00;;;;;;;2.60;1.57;;;17.90;99.90;;;;;;6245504;23;20813;-84
2022/11/15 10:30:36;;;;;;;3.20;1.30;;;17.90;99.90;;;;;;6245399;23;20756;-84
2022/11/15 10:33:20;;;;;;;5.50;1.20;;;17.80;99.90;;;;;;6247406;23;20747;-84
2022/11/15 10:35:46;;;;;;;5.70;1.03;;;17.80;99.90;;;;;;6244139;23;20456;-85
2022/11/15 10:38:12;;;;;;;6.63;1.20;;;17.80;99.90;;;;;;6245770;23;20371;-83
2022/11/15 10:40:39;;;;;;;1.80;1.17;;;17.80;99.90;;;;;;6244344;23;20641;-84
2022/11/15 10:43:12;;;;;;;1.80;1.23;;;17.80;99.90;;;;;;6217639;23;20453;-83
2022/11/15 10:45:38;;;;;;;5.03;1.57;;;17.90;99.90;;;;;;6220161;23;20415;-84
2022/11/15 10:48:12;;;;;;;4.23;1.70;;;18.00;99.90;;;;;;6245989;23;20387;-84
2022/11/15 10:50:40;;;;;;;2.60;1.27;;;18.10;99.90;;;;;;6247764;23;20182;-84
2022/11/15 10:53:23;;;;;;;6.43;1.40;;;18.20;99.90;;;;;;6243808;23;20371;-85
2022/11/15 10:55:52;;;;;;;5.03;1.97;;;18.70;99.90;;;;;;6244499;23;20404;-84
2022/11/15 10:58:38;;;;;;;3.30;2.27;;;19.60;99.90;;;;;;6245607;23;20852;-85
2022/11/15 11:01:15;;;;;;;4.73;1.10;;;20.90;99.90;;;;;;6241839;23;20401;-83
2022/11/15 11:03:42;;;;;;;3.77;1.10;;;22.10;99.90;;;;;;6244352;23;20357;-84
2022/11/15 11:06:18;;;;;;;1.60;0.97;;;23.20;99.90;;;;;;6243603;23;20383;-84
2022/11/15 11:08:57;;;;;;;1.60;0.90;;;24.10;99.90;;;;;;6243898;23;20379;-83
2022/11/15 11:11:23;;;;;;;2.73;1.17;;;24.80;99.90;;;;;;6245019;23;20423;-85
2022/11/15 11:13:48;;;;;;;1.77;1.00;;;25.10;99.90;;;;;;6244618;23;20861;-84
2022/11/15 11:16:14;;;;;;;2.70;0.90;;;25.60;99.90;;;;;;6243986;23;20462;-84
2022/11/15 11:18:48;;;;;;;6.13;4.40;;;25.80;99.90;;;;;;6242940;23;20199;-84
2022/11/15 11:21:21;;;;;;;3.80;1.57;;;25.70;99.90;;;;;;6244138;23;20144;-83
2022/11/15 11:24:03;;;;;;;3.13;1.00;;;25.40;99.90;;;;;;6243597;23;20742;-85
2022/11/15 11:26:55;;;;;;;2.47;1.00;;;25.20;99.90;;;;;;6243818;23;20352;-86
2022/11/15 11:30:01;;;;;;;2.43;0.90;;;25.10;99.90;;;;;;6244352;23;20433;-84
2022/11/15 11:32:40;;;;;;;2.03;0.80;;;24.90;99.90;;;;;;6243879;23;20380;-86
2022/11/15 11:35:19;;;;;;;4.80;1.13;;;25.30;99.90;;;;;;6244495;23;20791;-84
2022/11/15 11:37:53;;;;;;;2.50;0.87;;;25.40;99.90;;;;;;6247262;23;20759;-83
2022/11/15 11:40:29;;;;;;;2.10;1.07;;;25.10;99.90;;;;;;6221007;23;20388;-85
2022/11/15 11:43:01;;;;;;;3.53;0.77;;;24.70;99.90;;;;;;6246404;23;20352;-84
2022/11/15 11:45:44;;;;;;;1.90;1.00;;;24.30;99.90;;;;;;6245554;23;20779;-85
2022/11/15 11:48:14;;;;;;;3.37;1.80;;;24.20;99.90;;;;;;6245366;23;20357;-85
2022/11/15 11:50:42;;;;;;;2.20;0.90;;;24.30;99.90;;;;;;6245656;23;20489;-84
2022/11/15 11:53:31;;;;;;;2.47;1.20;;;24.60;99.90;;;;;;6244583;23;20372;-83
2022/11/15 11:56:03;;;;;;;3.47;0.80;;;25.20;99.90;;;;;;6244642;23;20361;-82
2022/11/15 11:58:36;;;;;;;2.60;0.90;;;25.90;99.90;;;;;;6242237;23;20422;-84
2022/11/15 12:01:07;;;;;;;3.03;1.10;;;26.50;99.90;;;;;;6244542;23;20938;-84
2022/11/15 12:03:51;;;;;;;4.73;1.17;;;26.40;99.90;;;;;;6243473;23;20419;-84
2022/11/15 12:06:37;;;;;;;5.77;0.97;;;26.20;99.90;;;;;;6246713;23;20780;-84
2022/11/15 12:09:33;;;;;;;2.73;1.00;;;25.80;99.90;;;;;;6243326;23;20372;-84
2022/11/15 12:12:01;;;;;;;3.50;1.10;;;25.40;99.90;;;;;;6242569;23;20419;-85
2022/11/15 12:14:41;;;;;;;9.17;1.63;;;25.30;99.90;;;;;;6243242;23;20446;-83
2022/11/15 12:17:11;;;;;;;2.37;1.03;;;25.10;99.90;;;;;;6242840;23;20407;-83
2022/11/15 12:19:37;;;;;;;4.70;1.43;;;25.10;99.90;;;;;;6243155;23;20844;-83
2022/11/15 12:22:13;;;;;;;3.27;1.10;;;25.20;99.90;;;;;;6244665;23;20479;-84
2022/11/15 12:24:45;;;;;;;4.23;1.80;;;24.90;99.90;;;;;;6242458;23;20521;-84
2022/11/15 12:27:46;;;;;;;5.03;1.20;;;24.30;99.90;;;;;;6242569;23;20372;-83
2022/11/15 12:30:17;;;;;;;5.83;1.30;;;23.40;99.90;;;;;;6242529;23;20405;-83
2022/11/15 12:32:56;;;;;;;6.93;1.53;;;22.60;98.70;;;;;;6242953;23;20388;-83
2022/11/15 12:35:30;;;;;;;4.30;2.17;;;22.10;98.00;;;;;;6244669;23;20395;-83
2022/11/15 12:37:56;;;;;;;3.10;1.83;;;21.70;98.00;;;;;;6245337;23;20448;-83
2022/11/15 13:11:50;;;;;;;10.50;4.93;;;19.10;99.90;;;;;;6228748;22;20467;-85
2022/11/15 13:14:39;;;;;;;7.73;3.93;;;18.80;99.90;;;;;;6244050;23;20403;-82
2022/11/15 13:17:22;;;;;;;10.33;3.50;;;18.50;99.90;;;;;;6243943;23;20368;-83
2022/11/15 13:20:02;;;;;;;;;;;;;;;;;;;;;
2022/11/15 13:22:50;;;;;;;8.87;1.47;;;18.20;99.90;;;;;;6248134;23;20666;-83
2022/11/15 13:25:35;;;;;;;4.30;1.57;;;17.90;99.90;;;;;;6219427;23;20692;-83
2022/11/15 13:28:12;;;;;;;7.40;1.50;;;17.80;99.90;;;;;;6246052;23;20767;-83
2022/11/15 13:33:40;;;;;;;3.53;1.60;;;17.70;99.90;;;;;;6231120;23;20394;-84
2022/11/15 13:39:28;;;;;;;5.83;2.27;;;17.50;99.90;;;;;;6260193;23;20828;-84
2022/11/15 13:42:26;;;;;;;4.90;1.87;;;17.40;99.90;;;;;;6222456;23;20629;-83
2022/11/15 13:45:17;;;;;;;18.70;2.30;;;17.30;99.90;;;;;;6209718;23;20408;-83
2022/11/15 13:48:11;;;;;;;9.73;2.17;;;17.30;99.90;;;;;;6220083;23;20412;-84
2022/11/15 13:51:02;;;;;;;5.33;1.60;;;17.10;99.90;;;;;;6235315;22;20479;-84
2022/11/15 13:53:31;;;;;;;9.03;1.40;;;17.10;99.90;;;;;;6218928;23;20847;-83